Cason, TX (75636)

4:50 PM CDT on August 31, 2015 (GMT -0500)
Jenkins | | Change Station
CLOSE
Current Station
Personal Weather Station
Location: Daingerfield, TX
Elevation: 344 ft
Nearby Weather Stations

Elev 344 ft 32.96 °N, 94.74 °W | Updated 5 minutes ago

Partly Cloudy
Partly Cloudy
91.6 °F
Feels Like 97 °F
N
4.2
Wind Variable Wind from SSW

Today
High -- | Low -- °F
--% Chance of Precip.
Yesterday
High -- | Low -- °F
Precip. -- in
6:52 AM 7:45 PM
Waning Gibbous, 93% visible
Pressure 29.99 in
Visibility 10.0 miles
Clouds Clear
Heat Index 97 °F
Dew Point 70 °F
Humidity 49%
Rainfall 0.00 in
Snow Depth Not available.
UV 5 out of 12
Pollen 8.50 out of 12
Air Quality Not available.
Flu Activity Not available.
METAR KOSA 312135Z AUTO 11007KT 10SM CLR 34/15 A2999 RMK AO1 T03350146
Pressure 29.99 in
Visibility 10.0 miles
Clouds Clear
Heat Index 97 °F
Dew Point 70 °F
Humidity 49%
Rainfall 0.00 in
Snow Depth Not available.
UV 5 out of 12
Pollen 8.50 out of 12
Air Quality Not available.
Flu Activity Not available.
METAR KOSA 312135Z AUTO 11007KT 10SM CLR 34/15 A2999 RMK AO1 T03350146

10-Day Weather Forecast

×

Almanac

Astronomy

Aug. 31, 2015 Rise Set
Actual Time
Civil Twilight
Nautical Twilight
Astronomical Twilight
Moon
Length of Visible Light
Length of Day
Tomorrow will be .
, % of the Moon is Illuminated

Today's Extremes

State Highs State Lows

Community

WunderPhotos

Upload Photos

1,851,377 photos uploaded!

WunderBlogs® & News

Nearby

Air Quality

  Air Quality AQ Index Pollutant
Not available.

Snow Depth

Station Depth Elevation

Earthquake Activity

City Distance Mag. Time & Date
Minimum magnitude displayed is 2.5.

Coastal Water Temperatures

Place Temperature

Stations

Nearby Weather Stations

Station Location Temp. Windchill Dew Point Humidity Wind Precip. Elev Updated Type